sensor_id;sensor_type;location;lat;lon;timestamp;P1;durP1;ratioP1;P2;durP2;ratioP2
68229;SDS011;55048;52.220;5.160;2022-09-09T00:01:02;1.63;;;0.30;;
68229;SDS011;55048;52.220;5.160;2022-09-09T00:03:36;0.80;;;0.30;;
68229;SDS011;55048;52.220;5.160;2022-09-09T00:11:52;5.00;;;0.50;;
68229;SDS011;55048;52.220;5.160;2022-09-09T00:14:26;2.13;;;0.40;;
68229;SDS011;55048;52.220;5.160;2022-09-09T00:17:01;1.85;;;0.50;;
68229;SDS011;55048;52.220;5.160;2022-09-09T00:22:17;3.47;;;0.52;;
68229;SDS011;55048;52.220;5.160;2022-09-09T00:24:45;1.00;;;0.40;;
68229;SDS011;55048;52.220;5.160;2022-09-09T00:27:34;3.80;;;0.50;;
68229;SDS011;55048;52.220;5.160;2022-09-09T00:32:55;1.67;;;0.50;;
68229;SDS011;55048;52.220;5.160;2022-09-09T00:35:27;1.35;;;0.50;;
68229;SDS011;55048;52.220;5.160;2022-09-09T00:38:15;2.40;;;0.45;;
68229;SDS011;55048;52.220;5.160;2022-09-09T00:40:55;5.18;;;0.60;;
68229;SDS011;55048;52.220;5.160;2022-09-09T00:43:31;2.15;;;0.70;;
68229;SDS011;55048;52.220;5.160;2022-09-09T00:48:47;3.40;;;0.70;;
68229;SDS011;55048;52.220;5.160;2022-09-09T00:51:30;3.08;;;0.70;;
68229;SDS011;55048;52.220;5.160;2022-09-09T00:54:11;2.83;;;0.80;;
68229;SDS011;55048;52.220;5.160;2022-09-09T00:56:57;1.20;;;0.60;;
68229;SDS011;55048;52.220;5.160;2022-09-09T01:02:15;6.28;;;0.70;;
68229;SDS011;55048;52.220;5.160;2022-09-09T01:04:47;1.70;;;0.73;;
68229;SDS011;55048;52.220;5.160;2022-09-09T01:07:21;3.38;;;0.90;;
68229;SDS011;55048;52.220;5.160;2022-09-09T01:12:28;3.08;;;1.10;;
68229;SDS011;55048;52.220;5.160;2022-09-09T01:15:07;7.38;;;1.05;;
68229;SDS011;55048;52.220;5.160;2022-09-09T01:20:27;3.15;;;1.17;;
68229;SDS011;55048;52.220;5.160;2022-09-09T01:24:04;3.47;;;1.17;;
68229;SDS011;55048;52.220;5.160;2022-09-09T01:28:48;12.30;;;1.60;;
68229;SDS011;55048;52.220;5.160;2022-09-09T01:31:27;4.03;;;1.13;;
68229;SDS011;55048;52.220;5.160;2022-09-09T01:33:57;5.18;;;1.73;;
68229;SDS011;55048;52.220;5.160;2022-09-09T01:36:32;3.65;;;1.40;;
68229;SDS011;55048;52.220;5.160;2022-09-09T01:39:08;4.03;;;1.40;;
68229;SDS011;55048;52.220;5.160;2022-09-09T01:41:35;6.78;;;1.50;;
68229;SDS011;55048;52.220;5.160;2022-09-09T01:44:06;2.80;;;1.30;;
68229;SDS011;55048;52.220;5.160;2022-09-09T01:46:35;4.47;;;1.50;;
68229;SDS011;55048;52.220;5.160;2022-09-09T01:49:02;6.90;;;1.85;;
68229;SDS011;55048;52.220;5.160;2022-09-09T01:51:30;5.25;;;1.77;;
68229;SDS011;55048;52.220;5.160;2022-09-09T01:53:59;6.88;;;1.98;;
68229;SDS011;55048;52.220;5.160;2022-09-09T02:04:54;7.50;;;2.05;;
68229;SDS011;55048;52.220;5.160;2022-09-09T02:07:03;5.55;;;1.80;;
68229;SDS011;55048;52.220;5.160;2022-09-09T02:09:38;4.20;;;1.98;;
68229;SDS011;55048;52.220;5.160;2022-09-09T02:12:09;4.35;;;1.98;;
68229;SDS011;55048;52.220;5.160;2022-09-09T02:14:47;5.35;;;2.40;;
68229;SDS011;55048;52.220;5.160;2022-09-09T02:17:20;3.90;;;2.15;;
68229;SDS011;55048;52.220;5.160;2022-09-09T02:20:08;5.57;;;2.28;;
68229;SDS011;55048;52.220;5.160;2022-09-09T02:23:07;6.35;;;2.10;;
68229;SDS011;55048;52.220;5.160;2022-09-09T02:25:36;5.38;;;2.45;;
68229;SDS011;55048;52.220;5.160;2022-09-09T02:28:12;9.68;;;2.60;;
68229;SDS011;55048;52.220;5.160;2022-09-09T02:30:40;7.35;;;2.88;;
68229;SDS011;55048;52.220;5.160;2022-09-09T02:33:09;5.65;;;2.75;;
68229;SDS011;55048;52.220;5.160;2022-09-09T02:35:42;3.72;;;2.45;;
68229;SDS011;55048;52.220;5.160;2022-09-09T02:38:10;3.92;;;2.58;;
68229;SDS011;55048;52.220;5.160;2022-09-09T02:40:41;7.40;;;3.53;;
68229;SDS011;55048;52.220;5.160;2022-09-09T02:43:08;4.47;;;2.90;;
68229;SDS011;55048;52.220;5.160;2022-09-09T02:45:42;7.53;;;3.30;;
68229;SDS011;55048;52.220;5.160;2022-09-09T02:48:27;4.65;;;3.13;;
68229;SDS011;55048;52.220;5.160;2022-09-09T02:53:43;7.72;;;3.47;;
68229;SDS011;55048;52.220;5.160;2022-09-09T02:56:18;8.77;;;3.30;;
68229;SDS011;55048;52.220;5.160;2022-09-09T02:58:49;5.82;;;3.30;;
68229;SDS011;55048;52.220;5.160;2022-09-09T03:01:17;5.38;;;3.05;;
68229;SDS011;55048;52.220;5.160;2022-09-09T03:03:43;11.15;;;3.25;;
68229;SDS011;55048;52.220;5.160;2022-09-09T03:06:12;6.22;;;3.38;;
68229;SDS011;55048;52.220;5.160;2022-09-09T03:08:38;6.80;;;2.72;;
68229;SDS011;55048;52.220;5.160;2022-09-09T03:11:04;6.97;;;3.35;;
68229;SDS011;55048;52.220;5.160;2022-09-09T03:13:33;7.68;;;3.15;;
68229;SDS011;55048;52.220;5.160;2022-09-09T03:15:58;7.82;;;3.05;;
68229;SDS011;55048;52.220;5.160;2022-09-09T03:18:25;5.65;;;2.53;;
68229;SDS011;55048;52.220;5.160;2022-09-09T03:20:53;6.05;;;3.17;;
68229;SDS011;55048;52.220;5.160;2022-09-09T03:23:19;7.22;;;3.15;;
68229;SDS011;55048;52.220;5.160;2022-09-09T03:25:47;7.93;;;3.03;;
68229;SDS011;55048;52.220;5.160;2022-09-09T03:28:15;6.27;;;3.37;;
68229;SDS011;55048;52.220;5.160;2022-09-09T03:30:41;7.22;;;3.17;;
68229;SDS011;55048;52.220;5.160;2022-09-09T03:33:07;5.43;;;2.63;;
68229;SDS011;55048;52.220;5.160;2022-09-09T03:35:33;5.70;;;2.67;;
68229;SDS011;55048;52.220;5.160;2022-09-09T03:37:59;6.20;;;2.72;;
68229;SDS011;55048;52.220;5.160;2022-09-09T03:40:26;5.75;;;2.85;;
68229;SDS011;55048;52.220;5.160;2022-09-09T03:42:52;5.80;;;2.63;;
68229;SDS011;55048;52.220;5.160;2022-09-09T03:45:17;4.85;;;2.83;;
68229;SDS011;55048;52.220;5.160;2022-09-09T03:47:43;4.03;;;2.83;;
68229;SDS011;55048;52.220;5.160;2022-09-09T03:50:08;8.43;;;3.28;;
68229;SDS011;55048;52.220;5.160;2022-09-09T03:52:37;5.32;;;2.90;;
68229;SDS011;55048;52.220;5.160;2022-09-09T03:55:07;5.60;;;3.08;;
68229;SDS011;55048;52.220;5.160;2022-09-09T03:57:33;7.00;;;2.97;;
68229;SDS011;55048;52.220;5.160;2022-09-09T04:00:04;6.35;;;2.40;;
68229;SDS011;55048;52.220;5.160;2022-09-09T04:02:41;7.35;;;2.85;;
68229;SDS011;55048;52.220;5.160;2022-09-09T04:05:08;4.88;;;2.88;;
68229;SDS011;55048;52.220;5.160;2022-09-09T04:07:34;7.38;;;2.72;;
68229;SDS011;55048;52.220;5.160;2022-09-09T04:09:59;6.68;;;3.13;;
68229;SDS011;55048;52.220;5.160;2022-09-09T04:12:25;7.25;;;2.85;;
68229;SDS011;55048;52.220;5.160;2022-09-09T04:14:50;5.03;;;2.55;;
68229;SDS011;55048;52.220;5.160;2022-09-09T04:17:15;5.35;;;2.42;;
68229;SDS011;55048;52.220;5.160;2022-09-09T04:19:42;6.35;;;2.50;;
68229;SDS011;55048;52.220;5.160;2022-09-09T04:22:07;5.72;;;2.47;;
68229;SDS011;55048;52.220;5.160;2022-09-09T04:24:33;7.05;;;2.58;;
68229;SDS011;55048;52.220;5.160;2022-09-09T04:27:00;5.45;;;2.55;;
68229;SDS011;55048;52.220;5.160;2022-09-09T04:29:25;5.57;;;2.20;;
68229;SDS011;55048;52.220;5.160;2022-09-09T04:31:51;5.80;;;2.30;;
68229;SDS011;55048;52.220;5.160;2022-09-09T04:34:16;6.93;;;2.45;;
68229;SDS011;55048;52.220;5.160;2022-09-09T04:36:43;6.82;;;2.83;;
68229;SDS011;55048;52.220;5.160;2022-09-09T04:39:08;5.65;;;2.70;;
68229;SDS011;55048;52.220;5.160;2022-09-09T04:41:33;7.20;;;2.45;;
68229;SDS011;55048;52.220;5.160;2022-09-09T04:43:59;8.90;;;2.50;;
68229;SDS011;55048;52.220;5.160;2022-09-09T04:46:25;5.88;;;2.53;;
68229;SDS011;55048;52.220;5.160;2022-09-09T04:48:51;6.13;;;2.05;;
68229;SDS011;55048;52.220;5.160;2022-09-09T04:51:18;5.63;;;2.08;;
68229;SDS011;55048;52.220;5.160;2022-09-09T04:53:46;6.38;;;2.38;;
68229;SDS011;55048;52.220;5.160;2022-09-09T04:56:13;5.60;;;1.95;;
68229;SDS011;55048;52.220;5.160;2022-09-09T04:58:45;8.88;;;2.25;;
68229;SDS011;55048;52.220;5.160;2022-09-09T05:01:15;9.77;;;2.15;;
68229;SDS011;55048;52.220;5.160;2022-09-09T05:03:44;3.72;;;1.65;;
68229;SDS011;55048;52.220;5.160;2022-09-09T05:06:17;3.80;;;1.88;;
68229;SDS011;55048;52.220;5.160;2022-09-09T05:08:46;10.20;;;1.88;;
68229;SDS011;55048;52.220;5.160;2022-09-09T05:13:54;4.07;;;1.63;;
68229;SDS011;55048;52.220;5.160;2022-09-09T05:16:20;5.03;;;1.95;;
68229;SDS011;55048;52.220;5.160;2022-09-09T05:18:46;4.18;;;1.85;;
68229;SDS011;55048;52.220;5.160;2022-09-09T05:21:12;5.65;;;1.85;;
68229;SDS011;55048;52.220;5.160;2022-09-09T05:23:39;5.88;;;1.80;;
68229;SDS011;55048;52.220;5.160;2022-09-09T05:26:06;4.68;;;1.85;;
68229;SDS011;55048;52.220;5.160;2022-09-09T05:28:34;5.90;;;2.05;;
68229;SDS011;55048;52.220;5.160;2022-09-09T05:31:06;6.00;;;1.80;;
68229;SDS011;55048;52.220;5.160;2022-09-09T05:33:34;8.70;;;1.70;;
68229;SDS011;55048;52.220;5.160;2022-09-09T05:38:29;4.43;;;1.75;;
68229;SDS011;55048;52.220;5.160;2022-09-09T05:40:55;7.15;;;2.40;;
68229;SDS011;55048;52.220;5.160;2022-09-09T05:43:22;6.13;;;1.80;;
68229;SDS011;55048;52.220;5.160;2022-09-09T05:45:57;7.35;;;1.80;;
68229;SDS011;55048;52.220;5.160;2022-09-09T05:48:45;8.73;;;1.83;;
68229;SDS011;55048;52.220;5.160;2022-09-09T05:51:13;10.45;;;2.10;;
68229;SDS011;55048;52.220;5.160;2022-09-09T05:53:43;6.82;;;2.03;;
68229;SDS011;55048;52.220;5.160;2022-09-09T05:56:12;7.03;;;2.00;;
68229;SDS011;55048;52.220;5.160;2022-09-09T05:58:42;7.28;;;1.85;;
68229;SDS011;55048;52.220;5.160;2022-09-09T06:03:40;7.47;;;1.50;;
68229;SDS011;55048;52.220;5.160;2022-09-09T06:06:08;9.88;;;1.67;;
68229;SDS011;55048;52.220;5.160;2022-09-09T06:08:37;8.30;;;1.88;;
68229;SDS011;55048;52.220;5.160;2022-09-09T06:11:05;15.95;;;2.13;;
68229;SDS011;55048;52.220;5.160;2022-09-09T06:13:32;8.23;;;1.85;;
68229;SDS011;55048;52.220;5.160;2022-09-09T06:15:58;6.13;;;1.83;;
68229;SDS011;55048;52.220;5.160;2022-09-09T06:18:24;4.03;;;1.40;;
68229;SDS011;55048;52.220;5.160;2022-09-09T06:23:20;3.65;;;1.60;;
68229;SDS011;55048;52.220;5.160;2022-09-09T06:25:46;5.60;;;1.42;;
68229;SDS011;55048;52.220;5.160;2022-09-09T06:28:12;6.32;;;1.88;;
68229;SDS011;55048;52.220;5.160;2022-09-09T06:30:38;5.97;;;1.50;;
68229;SDS011;55048;52.220;5.160;2022-09-09T06:33:05;12.27;;;1.70;;
68229;SDS011;55048;52.220;5.160;2022-09-09T06:35:30;15.98;;;1.55;;
68229;SDS011;55048;52.220;5.160;2022-09-09T06:37:55;10.00;;;1.67;;
68229;SDS011;55048;52.220;5.160;2022-09-09T06:40:22;4.88;;;1.15;;
68229;SDS011;55048;52.220;5.160;2022-09-09T06:42:47;9.95;;;1.52;;
68229;SDS011;55048;52.220;5.160;2022-09-09T06:45:30;9.50;;;1.40;;
68229;SDS011;55048;52.220;5.160;2022-09-09T06:47:57;6.53;;;1.00;;
68229;SDS011;55048;52.220;5.160;2022-09-09T06:50:23;9.68;;;1.20;;
68229;SDS011;55048;52.220;5.160;2022-09-09T06:52:49;8.20;;;1.35;;
68229;SDS011;55048;52.220;5.160;2022-09-09T06:55:14;5.93;;;1.30;;
68229;SDS011;55048;52.220;5.160;2022-09-09T06:57:41;8.88;;;1.23;;
68229;SDS011;55048;52.220;5.160;2022-09-09T07:00:17;7.43;;;1.10;;
68229;SDS011;55048;52.220;5.160;2022-09-09T07:02:42;7.70;;;1.20;;
68229;SDS011;55048;52.220;5.160;2022-09-09T07:05:09;12.77;;;1.58;;
68229;SDS011;55048;52.220;5.160;2022-09-09T07:07:34;8.82;;;1.20;;
68229;SDS011;55048;52.220;5.160;2022-09-09T07:10:00;9.95;;;1.40;;
68229;SDS011;55048;52.220;5.160;2022-09-09T07:12:26;7.53;;;0.93;;
68229;SDS011;55048;52.220;5.160;2022-09-09T07:17:21;4.93;;;0.82;;
68229;SDS011;55048;52.220;5.160;2022-09-09T07:19:47;3.97;;;1.20;;
68229;SDS011;55048;52.220;5.160;2022-09-09T07:22:13;5.18;;;1.08;;
68229;SDS011;55048;52.220;5.160;2022-09-09T07:24:40;8.43;;;1.00;;
68229;SDS011;55048;52.220;5.160;2022-09-09T07:27:06;8.40;;;1.27;;
68229;SDS011;55048;52.220;5.160;2022-09-09T07:29:31;11.18;;;1.10;;
68229;SDS011;55048;52.220;5.160;2022-09-09T07:31:58;5.93;;;1.10;;
68229;SDS011;55048;52.220;5.160;2022-09-09T07:34:29;7.07;;;1.02;;
68229;SDS011;55048;52.220;5.160;2022-09-09T07:36:55;4.18;;;1.25;;
68229;SDS011;55048;52.220;5.160;2022-09-09T07:39:22;5.57;;;1.05;;
68229;SDS011;55048;52.220;5.160;2022-09-09T07:41:51;7.70;;;1.30;;
68229;SDS011;55048;52.220;5.160;2022-09-09T07:44:20;6.32;;;1.10;;
68229;SDS011;55048;52.220;5.160;2022-09-09T07:46:52;6.47;;;1.30;;
68229;SDS011;55048;52.220;5.160;2022-09-09T07:49:23;12.95;;;1.23;;
68229;SDS011;55048;52.220;5.160;2022-09-09T07:51:49;6.13;;;1.17;;
68229;SDS011;55048;52.220;5.160;2022-09-09T07:54:17;8.75;;;1.33;;
68229;SDS011;55048;52.220;5.160;2022-09-09T07:56:49;8.73;;;1.50;;
68229;SDS011;55048;52.220;5.160;2022-09-09T07:59:15;6.80;;;1.17;;
68229;SDS011;55048;52.220;5.160;2022-09-09T08:01:43;5.93;;;1.00;;
68229;SDS011;55048;52.220;5.160;2022-09-09T08:04:13;8.00;;;1.30;;
68229;SDS011;55048;52.220;5.160;2022-09-09T08:06:43;9.10;;;1.20;;
68229;SDS011;55048;52.220;5.160;2022-09-09T08:09:11;10.38;;;1.20;;
68229;SDS011;55048;52.220;5.160;2022-09-09T08:11:38;11.55;;;1.20;;
68229;SDS011;55048;52.220;5.160;2022-09-09T08:14:04;8.05;;;1.13;;
68229;SDS011;55048;52.220;5.160;2022-09-09T08:16:31;5.75;;;1.33;;
68229;SDS011;55048;52.220;5.160;2022-09-09T08:18:59;8.30;;;0.93;;
68229;SDS011;55048;52.220;5.160;2022-09-09T08:21:29;7.40;;;1.17;;
68229;SDS011;55048;52.220;5.160;2022-09-09T08:23:58;4.63;;;0.93;;
68229;SDS011;55048;52.220;5.160;2022-09-09T08:26:25;6.10;;;0.95;;
68229;SDS011;55048;52.220;5.160;2022-09-09T08:29:00;8.65;;;1.30;;
68229;SDS011;55048;52.220;5.160;2022-09-09T08:31:33;9.05;;;1.40;;
68229;SDS011;55048;52.220;5.160;2022-09-09T08:34:00;7.78;;;1.08;;
68229;SDS011;55048;52.220;5.160;2022-09-09T08:38:58;7.13;;;0.90;;
68229;SDS011;55048;52.220;5.160;2022-09-09T08:41:30;9.85;;;1.20;;
68229;SDS011;55048;52.220;5.160;2022-09-09T08:44:19;7.82;;;0.90;;
68229;SDS011;55048;52.220;5.160;2022-09-09T08:55:27;7.82;;;0.82;;
68229;SDS011;55048;52.220;5.160;2022-09-09T08:57:56;5.28;;;0.85;;
68229;SDS011;55048;52.220;5.160;2022-09-09T09:00:29;11.82;;;1.20;;
68229;SDS011;55048;52.220;5.160;2022-09-09T09:03:14;9.77;;;1.10;;
68229;SDS011;55048;52.220;5.160;2022-09-09T09:06:01;8.52;;;0.90;;
68229;SDS011;55048;52.220;5.160;2022-09-09T09:08:45;10.60;;;0.90;;
68229;SDS011;55048;52.220;5.160;2022-09-09T09:11:23;8.63;;;1.02;;
68229;SDS011;55048;52.220;5.160;2022-09-09T09:19:19;7.47;;;1.10;;
68229;SDS011;55048;52.220;5.160;2022-09-09T09:24:55;4.80;;;0.82;;
68229;SDS011;55048;52.220;5.160;2022-09-09T09:30:18;7.55;;;1.08;;
68229;SDS011;55048;52.220;5.160;2022-09-09T09:32:55;9.55;;;1.20;;
68229;SDS011;55048;52.220;5.160;2022-09-09T09:35:26;5.10;;;1.00;;
68229;SDS011;55048;52.220;5.160;2022-09-09T09:37:51;9.20;;;0.90;;
68229;SDS011;55048;52.220;5.160;2022-09-09T09:40:18;7.60;;;1.23;;
68229;SDS011;55048;52.220;5.160;2022-09-09T09:42:48;15.50;;;1.25;;
68229;SDS011;55048;52.220;5.160;2022-09-09T09:45:19;7.15;;;0.95;;
68229;SDS011;55048;52.220;5.160;2022-09-09T09:48:00;7.35;;;1.17;;
68229;SDS011;55048;52.220;5.160;2022-09-09T09:50:31;11.98;;;1.17;;
68229;SDS011;55048;52.220;5.160;2022-09-09T09:52:59;13.40;;;1.00;;
68229;SDS011;55048;52.220;5.160;2022-09-09T09:55:31;8.85;;;1.02;;
68229;SDS011;55048;52.220;5.160;2022-09-09T09:58:02;6.57;;;1.00;;
68229;SDS011;55048;52.220;5.160;2022-09-09T10:00:30;7.72;;;1.10;;
68229;SDS011;55048;52.220;5.160;2022-09-09T10:03:12;7.38;;;0.88;;
68229;SDS011;55048;52.220;5.160;2022-09-09T10:05:45;10.98;;;1.10;;
68229;SDS011;55048;52.220;5.160;2022-09-09T10:08:13;6.50;;;0.70;;
68229;SDS011;55048;52.220;5.160;2022-09-09T10:21:15;6.40;;;0.90;;
68229;SDS011;55048;52.220;5.160;2022-09-09T10:37:33;9.88;;;1.20;;
68229;SDS011;55048;52.220;5.160;2022-09-09T10:40:16;7.20;;;1.10;;
68229;SDS011;55048;52.220;5.160;2022-09-09T10:42:51;5.70;;;1.00;;
68229;SDS011;55048;52.220;5.160;2022-09-09T10:45:26;8.25;;;1.38;;
68229;SDS011;55048;52.220;5.160;2022-09-09T10:50:33;6.32;;;1.10;;
68229;SDS011;55048;52.220;5.160;2022-09-09T10:56:02;7.82;;;1.10;;
68229;SDS011;55048;52.220;5.160;2022-09-09T10:58:37;9.15;;;0.90;;
68229;SDS011;55048;52.220;5.160;2022-09-09T11:04:10;9.50;;;1.02;;
68229;SDS011;55048;52.220;5.160;2022-09-09T11:06:44;8.70;;;0.85;;
68229;SDS011;55048;52.220;5.160;2022-09-09T11:09:16;7.20;;;0.90;;
68229;SDS011;55048;52.220;5.160;2022-09-09T11:11:50;7.95;;;1.00;;
68229;SDS011;55048;52.220;5.160;2022-09-09T11:14:41;8.43;;;1.00;;
68229;SDS011;55048;52.220;5.160;2022-09-09T11:17:10;6.00;;;0.80;;
68229;SDS011;55048;52.220;5.160;2022-09-09T11:19:42;8.10;;;1.00;;
68229;SDS011;55048;52.220;5.160;2022-09-09T11:25:21;5.30;;;1.00;;
68229;SDS011;55048;52.220;5.160;2022-09-09T11:30:47;8.52;;;0.93;;
68229;SDS011;55048;52.220;5.160;2022-09-09T11:41:50;7.57;;;0.85;;
68229;SDS011;55048;52.220;5.160;2022-09-09T11:44:23;9.13;;;1.02;;
68229;SDS011;55048;52.220;5.160;2022-09-09T11:46:54;8.02;;;1.02;;
68229;SDS011;55048;52.220;5.160;2022-09-09T11:52:24;9.52;;;1.25;;
68229;SDS011;55048;52.220;5.160;2022-09-09T11:55:11;10.35;;;1.00;;
68229;SDS011;55048;52.220;5.160;2022-09-09T11:58:05;8.00;;;0.80;;
68229;SDS011;55048;52.220;5.160;2022-09-09T12:00:44;8.10;;;1.00;;
68229;SDS011;55048;52.220;5.160;2022-09-09T12:06:13;7.30;;;0.98;;
68229;SDS011;55048;52.220;5.160;2022-09-09T12:08:45;5.00;;;0.93;;
68229;SDS011;55048;52.220;5.160;2022-09-09T12:11:26;2.83;;;1.00;;
68229;SDS011;55048;52.220;5.160;2022-09-09T12:13:56;3.05;;;0.95;;
68229;SDS011;55048;52.220;5.160;2022-09-09T12:16:29;5.45;;;1.10;;
68229;SDS011;55048;52.220;5.160;2022-09-09T12:19:05;6.45;;;1.02;;
68229;SDS011;55048;52.220;5.160;2022-09-09T12:24:11;2.70;;;0.90;;
68229;SDS011;55048;52.220;5.160;2022-09-09T12:26:47;4.20;;;1.10;;
68229;SDS011;55048;52.220;5.160;2022-09-09T12:32:10;2.47;;;0.90;;
68229;SDS011;55048;52.220;5.160;2022-09-09T12:34:44;4.13;;;1.10;;
68229;SDS011;55048;52.220;5.160;2022-09-09T12:37:35;5.40;;;1.20;;
68229;SDS011;55048;52.220;5.160;2022-09-09T12:43:00;2.95;;;0.90;;
68229;SDS011;55048;52.220;5.160;2022-09-09T12:45:28;4.15;;;1.10;;
68229;SDS011;55048;52.220;5.160;2022-09-09T12:48:09;5.28;;;0.90;;
68229;SDS011;55048;52.220;5.160;2022-09-09T12:50:50;6.07;;;1.10;;
68229;SDS011;55048;52.220;5.160;2022-09-09T12:53:36;11.35;;;1.23;;
68229;SDS011;55048;52.220;5.160;2022-09-09T12:56:07;3.88;;;1.00;;
68229;SDS011;55048;52.220;5.160;2022-09-09T12:58:36;3.95;;;1.00;;
68229;SDS011;55048;52.220;5.160;2022-09-09T13:01:03;3.95;;;0.95;;
68229;SDS011;55048;52.220;5.160;2022-09-09T13:03:30;5.35;;;0.90;;
68229;SDS011;55048;52.220;5.160;2022-09-09T13:05:57;4.45;;;1.25;;
68229;SDS011;55048;52.220;5.160;2022-09-09T13:08:35;9.93;;;1.15;;
68229;SDS011;55048;52.220;5.160;2022-09-09T13:11:01;4.50;;;1.08;;
68229;SDS011;55048;52.220;5.160;2022-09-09T13:13:38;7.53;;;1.00;;
68229;SDS011;55048;52.220;5.160;2022-09-09T13:16:05;7.03;;;1.35;;
68229;SDS011;55048;52.220;5.160;2022-09-09T13:18:43;6.30;;;1.23;;
68229;SDS011;55048;52.220;5.160;2022-09-09T13:21:11;4.28;;;1.00;;
68229;SDS011;55048;52.220;5.160;2022-09-09T13:23:37;5.35;;;1.13;;
68229;SDS011;55048;52.220;5.160;2022-09-09T13:26:07;2.33;;;0.85;;
68229;SDS011;55048;52.220;5.160;2022-09-09T13:28:46;4.95;;;0.90;;
68229;SDS011;55048;52.220;5.160;2022-09-09T13:31:20;3.80;;;0.90;;
68229;SDS011;55048;52.220;5.160;2022-09-09T13:33:47;4.35;;;1.27;;
68229;SDS011;55048;52.220;5.160;2022-09-09T13:36:13;5.95;;;1.17;;
68229;SDS011;55048;52.220;5.160;2022-09-09T13:41:20;4.65;;;1.35;;
68229;SDS011;55048;52.220;5.160;2022-09-09T13:43:48;2.55;;;0.90;;
68229;SDS011;55048;52.220;5.160;2022-09-09T13:46:25;2.40;;;0.90;;
68229;SDS011;55048;52.220;5.160;2022-09-09T13:48:56;2.70;;;0.95;;
68229;SDS011;55048;52.220;5.160;2022-09-09T13:51:43;4.37;;;1.00;;
68229;SDS011;55048;52.220;5.160;2022-09-09T13:54:12;4.68;;;0.80;;
68229;SDS011;55048;52.220;5.160;2022-09-09T13:56:39;8.00;;;1.00;;
68229;SDS011;55048;52.220;5.160;2022-09-09T13:59:09;3.90;;;1.10;;
68229;SDS011;55048;52.220;5.160;2022-09-09T14:01:36;5.95;;;1.00;;
68229;SDS011;55048;52.220;5.160;2022-09-09T14:04:02;7.68;;;1.20;;
68229;SDS011;55048;52.220;5.160;2022-09-09T14:06:30;6.55;;;1.17;;
68229;SDS011;55048;52.220;5.160;2022-09-09T14:08:57;3.50;;;0.77;;
68229;SDS011;55048;52.220;5.160;2022-09-09T14:11:22;6.60;;;0.90;;
68229;SDS011;55048;52.220;5.160;2022-09-09T14:13:48;2.22;;;0.70;;
68229;SDS011;55048;52.220;5.160;2022-09-09T14:16:15;4.15;;;0.80;;
68229;SDS011;55048;52.220;5.160;2022-09-09T14:18:42;4.20;;;0.90;;
68229;SDS011;55048;52.220;5.160;2022-09-09T14:21:09;5.38;;;0.90;;
68229;SDS011;55048;52.220;5.160;2022-09-09T14:23:34;5.45;;;1.00;;
68229;SDS011;55048;52.220;5.160;2022-09-09T14:26:00;3.47;;;1.10;;
68229;SDS011;55048;52.220;5.160;2022-09-09T14:28:25;5.78;;;1.10;;
68229;SDS011;55048;52.220;5.160;2022-09-09T14:30:50;2.58;;;0.85;;
68229;SDS011;55048;52.220;5.160;2022-09-09T14:33:16;5.03;;;1.17;;
68229;SDS011;55048;52.220;5.160;2022-09-09T14:35:42;7.15;;;1.00;;
68229;SDS011;55048;52.220;5.160;2022-09-09T14:38:09;3.85;;;0.93;;
68229;SDS011;55048;52.220;5.160;2022-09-09T14:40:38;3.47;;;0.93;;
68229;SDS011;55048;52.220;5.160;2022-09-09T14:43:04;4.15;;;0.90;;
68229;SDS011;55048;52.220;5.160;2022-09-09T14:45:30;4.80;;;0.85;;
68229;SDS011;55048;52.220;5.160;2022-09-09T14:47:56;6.97;;;0.80;;
68229;SDS011;55048;52.220;5.160;2022-09-09T14:50:22;4.25;;;0.90;;
68229;SDS011;55048;52.220;5.160;2022-09-09T14:52:48;3.50;;;0.85;;
68229;SDS011;55048;52.220;5.160;2022-09-09T14:55:14;3.83;;;0.88;;
68229;SDS011;55048;52.220;5.160;2022-09-09T14:57:40;4.25;;;1.00;;
68229;SDS011;55048;52.220;5.160;2022-09-09T15:00:06;5.00;;;1.00;;
68229;SDS011;55048;52.220;5.160;2022-09-09T15:02:33;5.28;;;1.00;;
68229;SDS011;55048;52.220;5.160;2022-09-09T15:04:59;5.28;;;1.10;;
68229;SDS011;55048;52.220;5.160;2022-09-09T15:07:25;5.57;;;1.10;;
68229;SDS011;55048;52.220;5.160;2022-09-09T15:09:50;2.65;;;0.80;;
68229;SDS011;55048;52.220;5.160;2022-09-09T15:12:17;3.33;;;0.60;;
68229;SDS011;55048;52.220;5.160;2022-09-09T15:14:44;3.40;;;0.60;;
68229;SDS011;55048;52.220;5.160;2022-09-09T15:17:09;1.00;;;0.40;;
68229;SDS011;55048;52.220;5.160;2022-09-09T15:19:35;2.55;;;0.40;;
68229;SDS011;55048;52.220;5.160;2022-09-09T15:22:01;2.10;;;0.40;;
68229;SDS011;55048;52.220;5.160;2022-09-09T15:24:27;2.22;;;0.43;;
68229;SDS011;55048;52.220;5.160;2022-09-09T15:26:52;3.63;;;0.50;;
68229;SDS011;55048;52.220;5.160;2022-09-09T15:29:18;2.92;;;0.50;;
68229;SDS011;55048;52.220;5.160;2022-09-09T15:31:44;2.50;;;0.40;;
68229;SDS011;55048;52.220;5.160;2022-09-09T15:34:09;3.35;;;0.63;;
68229;SDS011;55048;52.220;5.160;2022-09-09T15:36:42;2.85;;;0.55;;
68229;SDS011;55048;52.220;5.160;2022-09-09T15:39:10;3.80;;;0.60;;
68229;SDS011;55048;52.220;5.160;2022-09-09T15:41:37;5.13;;;0.68;;
68229;SDS011;55048;52.220;5.160;2022-09-09T15:44:04;3.63;;;0.60;;
68229;SDS011;55048;52.220;5.160;2022-09-09T15:46:43;4.18;;;0.60;;
68229;SDS011;55048;52.220;5.160;2022-09-09T15:49:22;2.95;;;0.68;;
68229;SDS011;55048;52.220;5.160;2022-09-09T15:51:54;4.18;;;0.70;;
68229;SDS011;55048;52.220;5.160;2022-09-09T15:54:21;4.00;;;0.68;;
68229;SDS011;55048;52.220;5.160;2022-09-09T15:59:26;5.65;;;0.60;;
68229;SDS011;55048;52.220;5.160;2022-09-09T16:01:53;7.03;;;0.80;;
68229;SDS011;55048;52.220;5.160;2022-09-09T16:04:20;3.17;;;0.52;;
68229;SDS011;55048;52.220;5.160;2022-09-09T16:06:48;4.82;;;0.50;;
68229;SDS011;55048;52.220;5.160;2022-09-09T16:09:15;5.10;;;0.80;;
68229;SDS011;55048;52.220;5.160;2022-09-09T16:11:40;3.20;;;0.93;;
68229;SDS011;55048;52.220;5.160;2022-09-09T16:14:06;3.38;;;0.60;;
68229;SDS011;55048;52.220;5.160;2022-09-09T16:16:31;3.75;;;0.60;;
68229;SDS011;55048;52.220;5.160;2022-09-09T16:19:02;6.50;;;0.65;;
68229;SDS011;55048;52.220;5.160;2022-09-09T16:21:35;2.60;;;0.90;;
68229;SDS011;55048;52.220;5.160;2022-09-09T16:24:06;4.03;;;0.55;;
68229;SDS011;55048;52.220;5.160;2022-09-09T16:26:35;1.92;;;0.47;;
68229;SDS011;55048;52.220;5.160;2022-09-09T16:29:03;2.53;;;0.43;;
68229;SDS011;55048;52.220;5.160;2022-09-09T16:31:28;2.95;;;0.50;;
68229;SDS011;55048;52.220;5.160;2022-09-09T16:33:55;3.50;;;0.50;;
68229;SDS011;55048;52.220;5.160;2022-09-09T16:36:25;5.20;;;0.50;;
68229;SDS011;55048;52.220;5.160;2022-09-09T16:38:53;5.82;;;0.60;;
68229;SDS011;55048;52.220;5.160;2022-09-09T16:43:55;1.40;;;0.45;;
68229;SDS011;55048;52.220;5.160;2022-09-09T16:46:25;3.90;;;0.50;;
68229;SDS011;55048;52.220;5.160;2022-09-09T16:48:52;3.83;;;0.93;;
68229;SDS011;55048;52.220;5.160;2022-09-09T16:51:23;3.70;;;0.55;;
68229;SDS011;55048;52.220;5.160;2022-09-09T16:53:51;4.18;;;0.50;;
68229;SDS011;55048;52.220;5.160;2022-09-09T16:56:24;2.42;;;0.60;;
68229;SDS011;55048;52.220;5.160;2022-09-09T16:58:52;2.50;;;0.70;;
68229;SDS011;55048;52.220;5.160;2022-09-09T17:01:27;3.30;;;0.60;;
68229;SDS011;55048;52.220;5.160;2022-09-09T17:03:59;5.03;;;0.82;;
68229;SDS011;55048;52.220;5.160;2022-09-09T17:06:29;2.40;;;0.73;;
68229;SDS011;55048;52.220;5.160;2022-09-09T17:11:28;7.60;;;1.10;;
68229;SDS011;55048;52.220;5.160;2022-09-09T17:13:54;4.65;;;1.00;;
68229;SDS011;55048;52.220;5.160;2022-09-09T17:16:22;5.38;;;1.17;;
68229;SDS011;55048;52.220;5.160;2022-09-09T17:19:01;7.10;;;1.27;;
68229;SDS011;55048;52.220;5.160;2022-09-09T17:21:50;8.93;;;1.50;;
68229;SDS011;55048;52.220;5.160;2022-09-09T17:27:10;7.07;;;1.50;;
68229;SDS011;55048;52.220;5.160;2022-09-09T17:29:48;7.03;;;1.40;;
68229;SDS011;55048;52.220;5.160;2022-09-09T17:32:16;9.43;;;1.67;;